Time;durP1;ratioP1;P1;durP2;ratioP2;P2;SDS_P1;SDS_P2;PMS_P1;PMS_P2;Temp;Humidity;BMP_temperature;BMP_pressure;BME280_temperature;BME280_humidity;BME280_pressure;Samples;Min_cycle;Max_cycle;Signal;HPM_P1;HPM_P2
2022/12/09 00:01:28;;;;;;;26.20;20.73;;;;;;;1.93;100.00;100465.38;5055923;28;20043;-68
2022/12/09 00:03:54;;;;;;;26.05;20.98;;;;;;;1.95;100.00;100467.88;5071946;28;20100;-69
2022/12/09 00:06:22;;;;;;;26.55;21.60;;;;;;;1.91;100.00;100461.22;5073185;28;20028;-69
2022/12/09 00:08:48;;;;;;;27.90;21.65;;;;;;;1.88;100.00;100465.06;5072058;28;20379;-69
2022/12/09 00:11:14;;;;;;;26.83;21.52;;;;;;;1.91;100.00;100462.03;5070374;28;20028;-68
2022/12/09 00:13:40;;;;;;;25.75;21.70;;;;;;;1.93;100.00;100457.38;5073023;28;20025;-69
2022/12/09 00:16:11;;;;;;;25.95;21.20;;;;;;;1.94;100.00;100458.19;5071837;28;20395;-69
2022/12/09 00:18:36;;;;;;;30.45;21.02;;;;;;;1.99;100.00;100460.31;5071667;28;20487;-69
2022/12/09 00:21:20;;;;;;;27.35;20.30;;;;;;;2.03;100.00;100469.63;5071945;28;20028;-69
2022/12/09 00:23:46;;;;;;;28.60;21.33;;;;;;;1.94;100.00;100460.84;5073053;28;20525;-69
2022/12/09 00:26:12;;;;;;;27.42;22.00;;;;;;;1.93;100.00;100453.84;5072997;28;20024;-69
2022/12/09 00:28:38;;;;;;;31.48;22.95;;;;;;;1.94;100.00;100456.34;5071965;28;20033;-69
2022/12/09 00:31:04;;;;;;;31.38;23.15;;;;;;;1.96;100.00;100453.50;5072047;28;20028;-68
2022/12/09 00:33:31;;;;;;;30.05;22.45;;;;;;;1.95;100.00;100465.19;5072704;28;20039;-69
2022/12/09 00:36:27;;;;;;;28.27;23.73;;;;;;;2.01;100.00;100455.63;5072987;28;20065;-69
2022/12/09 00:38:54;;;;;;;27.42;22.55;;;;;;;1.95;100.00;100458.00;5048170;28;20052;-68
2022/12/09 00:41:19;;;;;;;29.70;23.67;;;;;;;1.98;100.00;100464.84;5070575;28;20044;-69
2022/12/09 00:43:45;;;;;;;31.83;24.00;;;;;;;1.98;100.00;100462.16;5072141;28;20029;-69
2022/12/09 00:46:11;;;;;;;30.95;22.58;;;;;;;1.98;100.00;100458.66;5072599;28;20028;-68
2022/12/09 00:48:37;;;;;;;32.53;23.80;;;;;;;1.98;100.00;100462.16;5071109;28;20082;-69
2022/12/09 00:51:04;;;;;;;32.45;24.58;;;;;;;2.00;100.00;100459.31;5071885;28;20039;-69
2022/12/09 00:53:29;;;;;;;35.47;24.60;;;;;;;2.00;100.00;100462.81;5072484;28;20020;-68
2022/12/09 00:55:55;;;;;;;35.15;25.00;;;;;;;2.04;100.00;100468.59;5071230;28;20025;-69
2022/12/09 00:58:20;;;;;;;35.30;25.00;;;;;;;2.09;100.00;100460.91;5070154;28;20489;-69
2022/12/09 01:00:46;;;;;;;32.20;23.83;;;;;;;2.10;100.00;100460.75;5066119;28;20229;-69
2022/12/09 01:03:13;;;;;;;33.15;24.48;;;;;;;2.10;100.00;100458.06;5072423;28;20360;-69
2022/12/09 01:05:38;;;;;;;32.35;23.67;;;;;;;2.11;100.00;100453.53;5072217;28;20601;-69
2022/12/09 01:08:04;;;;;;;31.90;24.67;;;;;;;2.12;100.00;100455.22;5072391;28;20159;-69
2022/12/09 01:10:30;;;;;;;33.55;24.90;;;;;;;2.14;100.00;100458.53;5069118;28;20028;-69
2022/12/09 01:12:55;;;;;;;32.95;26.20;;;;;;;2.15;100.00;100460.19;5071247;28;20479;-68
2022/12/09 01:15:20;;;;;;;32.28;23.48;;;;;;;2.13;100.00;100455.03;5071998;28;20031;-68
2022/12/09 01:17:46;;;;;;;35.28;25.20;;;;;;;2.14;100.00;100461.19;5070999;28;20024;-68
2022/12/09 01:20:11;;;;;;;36.95;25.70;;;;;;;2.13;100.00;100465.72;5070248;28;20479;-69
2022/12/09 01:22:36;;;;;;;38.35;26.30;;;;;;;2.15;100.00;100462.03;5071958;28;20039;-69
2022/12/09 01:25:02;;;;;;;34.65;26.17;;;;;;;2.12;100.00;100468.56;5071007;28;20024;-69
2022/12/09 01:27:30;;;;;;;40.75;27.30;;;;;;;2.11;100.00;100466.91;5071930;28;20031;-68
2022/12/09 01:29:56;;;;;;;36.10;26.80;;;;;;;2.07;100.00;100470.94;5071404;28;20056;-69
2022/12/09 01:32:21;;;;;;;34.15;27.00;;;;;;;2.05;100.00;100471.09;5071429;28;20556;-68
2022/12/09 01:34:46;;;;;;;38.22;27.35;;;;;;;2.01;100.00;100467.16;5068510;28;20468;-68
2022/12/09 01:37:12;;;;;;;36.10;27.92;;;;;;;2.06;100.00;100470.09;5070996;28;20052;-68
2022/12/09 01:39:37;;;;;;;38.95;27.25;;;;;;;2.06;100.00;100470.09;5069954;28;20035;-68
2022/12/09 01:42:03;;;;;;;37.20;27.23;;;;;;;2.10;100.00;100467.94;5071165;28;20383;-68
2022/12/09 01:44:31;;;;;;;38.03;28.10;;;;;;;2.12;100.00;100469.38;5071733;28;20044;-69
2022/12/09 01:47:00;;;;;;;35.25;26.40;;;;;;;2.13;100.00;100472.91;5071995;28;20031;-69
2022/12/09 01:49:27;;;;;;;39.92;29.10;;;;;;;2.14;100.00;100471.88;5070424;28;20103;-69
2022/12/09 01:52:21;;;;;;;38.60;28.65;;;;;;;2.15;100.00;100473.53;5056252;28;20024;-69
2022/12/09 01:54:49;;;;;;;38.05;27.83;;;;;;;2.13;100.00;100464.91;5051021;28;20045;-69
2022/12/09 01:57:15;;;;;;;42.15;29.02;;;;;;;2.13;100.00;100470.22;5051801;28;20341;-69
2022/12/09 01:59:41;;;;;;;40.92;29.70;;;;;;;2.11;100.00;100466.91;5054167;28;20388;-69
2022/12/09 02:02:10;;;;;;;40.17;28.42;;;;;;;2.10;100.00;100466.06;5061397;28;20037;-68
2022/12/09 02:04:39;;;;;;;41.92;28.63;;;;;;;2.06;100.00;100466.63;5071770;28;20047;-68
2022/12/09 02:07:08;;;;;;;45.25;30.20;;;;;;;1.99;100.00;100468.31;5071971;28;20033;-69
2022/12/09 02:09:34;;;;;;;45.58;29.83;;;;;;;1.97;100.00;100468.50;5070143;28;20033;-68
2022/12/09 02:12:14;;;;;;;45.15;29.38;;;;;;;2.00;100.00;100470.00;5069447;28;20063;-69
2022/12/09 02:14:58;;;;;;;48.22;29.83;;;;;;;2.06;100.00;100471.94;5069526;28;20028;-68
2022/12/09 02:17:31;;;;;;;45.25;29.58;;;;;;;2.09;100.00;100472.41;5070813;28;20078;-69
2022/12/09 02:20:02;;;;;;;47.55;29.23;;;;;;;2.12;100.00;100473.91;5071608;28;20028;-68
2022/12/09 02:22:44;;;;;;;43.38;28.05;;;;;;;2.14;100.00;100471.88;5062713;28;20455;-68
2022/12/09 02:25:29;;;;;;;46.78;29.17;;;;;;;2.15;100.00;100478.06;5054060;28;20037;-69
2022/12/09 02:28:37;;;;;;;44.83;30.27;;;;;;;2.17;100.00;100471.50;5057452;28;20032;-69
2022/12/09 02:31:15;;;;;;;43.15;29.60;;;;;;;2.16;100.00;100458.34;5074637;28;20028;-69
2022/12/09 02:34:18;;;;;;;45.95;28.80;;;;;;;2.15;100.00;100468.22;5072789;28;20031;-68
2022/12/09 02:37:08;;;;;;;52.85;29.33;;;;;;;2.20;100.00;100465.00;5074757;28;20227;-69
2022/12/09 02:39:52;;;;;;;47.85;31.17;;;;;;;2.22;100.00;100466.47;5074846;28;20047;-68
2022/12/09 02:42:21;;;;;;;52.05;30.67;;;;;;;2.22;100.00;100463.81;5072716;28;20025;-69
2022/12/09 02:44:49;;;;;;;47.25;32.03;;;;;;;2.23;100.00;100460.13;5075317;28;20064;-69
2022/12/09 02:47:18;;;;;;;47.42;30.52;;;;;;;2.23;100.00;100465.44;5074918;28;20031;-69
2022/12/09 02:49:50;;;;;;;49.72;32.38;;;;;;;2.17;100.00;100460.84;5074629;28;20521;-68
2022/12/09 02:52:18;;;;;;;52.28;32.95;;;;;;;2.17;100.00;100457.34;5072168;28;20024;-68
2022/12/09 02:54:43;;;;;;;46.97;32.60;;;;;;;2.19;100.00;100456.16;5072763;28;20055;-68
2022/12/09 02:57:16;;;;;;;51.70;33.00;;;;;;;2.21;100.00;100451.47;5073336;28;20060;-69
2022/12/09 02:59:42;;;;;;;51.72;32.85;;;;;;;2.20;100.00;100454.31;5073476;28;20052;-68
2022/12/09 03:02:27;;;;;;;52.00;32.33;;;;;;;2.22;100.00;100454.97;5069778;28;20063;-69
2022/12/09 03:05:19;;;;;;;49.70;32.25;;;;;;;2.21;100.00;100461.31;5074641;28;20032;-69
2022/12/09 03:07:58;;;;;;;57.22;32.85;;;;;;;2.16;100.00;100450.34;5074422;28;20099;-68
2022/12/09 03:10:46;;;;;;;53.00;32.63;;;;;;;2.12;100.00;100455.22;5072798;28;20117;-69
2022/12/09 03:13:23;;;;;;;61.25;34.63;;;;;;;2.14;100.00;100453.19;5074710;28;20035;-68
2022/12/09 03:15:56;;;;;;;61.53;34.85;;;;;;;2.14;100.00;100455.84;5074135;28;20036;-68
2022/12/09 03:18:25;;;;;;;55.83;33.97;;;;;;;2.17;100.00;100444.81;5074431;28;20024;-69
2022/12/09 03:20:51;;;;;;;54.78;34.15;;;;;;;2.19;100.00;100440.16;5071756;28;20025;-68
2022/12/09 03:23:21;;;;;;;57.35;34.53;;;;;;;2.18;100.00;100430.47;5074290;28;20487;-68
2022/12/09 03:25:51;;;;;;;61.95;35.20;;;;;;;2.19;100.00;100436.63;5074279;28;20027;-69
2022/12/09 03:28:29;;;;;;;55.65;34.35;;;;;;;2.19;100.00;100431.28;5074151;28;20023;-68
2022/12/09 03:30:58;;;;;;;60.10;33.97;;;;;;;2.21;100.00;100426.63;5072693;28;20032;-68
2022/12/09 03:33:26;;;;;;;63.67;36.15;;;;;;;2.22;100.00;100425.59;5074095;28;20078;-68
2022/12/09 03:35:55;;;;;;;60.17;35.90;;;;;;;2.24;100.00;100428.94;5073902;28;20044;-69
2022/12/09 03:38:22;;;;;;;62.13;35.47;;;;;;;2.24;100.00;100428.94;5072906;28;20497;-69
2022/12/09 03:41:02;;;;;;;57.50;33.65;;;;;;;2.28;100.00;100428.38;5069532;28;20059;-69
2022/12/09 03:43:34;;;;;;;61.55;35.10;;;;;;;2.28;100.00;100415.03;5073875;28;20472;-68
2022/12/09 03:46:00;;;;;;;55.25;35.28;;;;;;;2.30;100.00;100422.88;5074041;28;20464;-69
2022/12/09 03:48:26;;;;;;;59.08;34.08;;;;;;;2.32;100.00;100425.34;5073800;28;20030;-68
2022/12/09 03:51:06;;;;;;;61.38;34.65;;;;;;;2.35;100.00;100420.47;5072112;28;20031;-69
2022/12/09 03:53:39;;;;;;;54.88;34.40;;;;;;;2.35;100.00;100422.31;5072834;28;20077;-69
2022/12/09 03:56:20;;;;;;;58.83;34.03;;;;;;;2.36;100.00;100424.81;5073792;28;20032;-69
2022/12/09 03:58:47;;;;;;;58.38;34.55;;;;;;;2.33;100.00;100425.16;5073417;28;20032;-69
2022/12/09 04:01:15;;;;;;;59.95;35.95;;;;;;;2.36;100.00;100419.47;5068492;28;20082;-69
2022/12/09 04:03:46;;;;;;;64.63;35.08;;;;;;;2.35;100.00;100428.47;5073395;28;20017;-68
2022/12/09 04:06:11;;;;;;;63.67;35.10;;;;;;;2.38;100.00;100435.31;5072440;28;20025;-69
2022/12/09 04:08:37;;;;;;;58.72;34.65;;;;;;;2.42;100.00;100425.94;5073096;28;20020;-69
2022/12/09 04:11:02;;;;;;;58.08;35.70;;;;;;;2.39;100.00;100419.09;5071912;28;20123;-69
2022/12/09 04:13:28;;;;;;;57.13;35.67;;;;;;;2.40;100.00;100417.25;5073572;28;20111;-69
2022/12/09 04:15:53;;;;;;;56.33;35.22;;;;;;;2.41;100.00;100419.72;5071891;28;20119;-68
2022/12/09 04:18:18;;;;;;;52.67;34.35;;;;;;;2.38;100.00;100413.94;5072323;28;20029;-68
2022/12/09 04:20:44;;;;;;;55.33;35.25;;;;;;;2.38;100.00;100416.63;5071576;28;20025;-68
2022/12/09 04:23:09;;;;;;;55.83;35.33;;;;;;;2.35;100.00;100420.47;5071192;28;20024;-69
2022/12/09 04:25:36;;;;;;;56.13;35.20;;;;;;;2.36;100.00;100415.97;5070916;28;20024;-68
2022/12/09 04:28:01;;;;;;;52.85;34.92;;;;;;;2.36;100.00;100421.31;5072014;28;20460;-69
2022/12/09 04:30:27;;;;;;;57.70;36.72;;;;;;;2.37;100.00;100417.63;5071589;28;20043;-69
2022/12/09 04:32:52;;;;;;;55.42;33.65;;;;;;;2.38;100.00;100416.63;5072698;28;20036;-69
2022/12/09 04:35:17;;;;;;;56.25;34.72;;;;;;;2.37;100.00;100414.94;5072699;28;20585;-69
2022/12/09 04:37:43;;;;;;;53.75;34.88;;;;;;;2.35;100.00;100408.97;5071801;28;20024;-69
2022/12/09 04:40:08;;;;;;;52.90;34.00;;;;;;;2.38;100.00;100413.94;5070804;28;20040;-69
2022/12/09 04:42:34;;;;;;;52.20;33.35;;;;;;;2.40;100.00;100417.25;5071868;28;20422;-68
2022/12/09 04:44:59;;;;;;;57.30;33.75;;;;;;;2.44;100.00;100410.53;5071170;28;20074;-69
2022/12/09 04:47:24;;;;;;;54.17;33.80;;;;;;;2.42;100.00;100408.06;5070598;28;20029;-69
2022/12/09 04:49:50;;;;;;;52.15;34.60;;;;;;;2.39;100.00;100411.09;5071534;28;20028;-68
2022/12/09 04:52:17;;;;;;;53.45;34.42;;;;;;;2.36;100.00;100414.13;5072789;28;20035;-69
2022/12/09 04:54:43;;;;;;;55.80;34.92;;;;;;;2.34;100.00;100416.16;5072634;28;20035;-68
2022/12/09 04:57:08;;;;;;;55.08;35.05;;;;;;;2.34;100.00;100409.97;5070821;28;20423;-69
2022/12/09 04:59:33;;;;;;;54.42;33.85;;;;;;;2.36;100.00;100414.13;5071509;28;20107;-69
2022/12/09 05:01:59;;;;;;;52.13;34.55;;;;;;;2.36;100.00;100415.97;5051906;28;20025;-69
2022/12/09 05:04:24;;;;;;;56.53;34.42;;;;;;;2.39;100.00;100410.28;5070766;28;20063;-69
2022/12/09 05:06:49;;;;;;;50.97;34.10;;;;;;;2.40;100.00;100411.91;5072222;28;20504;-69
2022/12/09 05:09:15;;;;;;;58.45;35.05;;;;;;;2.35;100.00;100416.97;5070087;28;20032;-69
2022/12/09 05:11:40;;;;;;;58.78;34.92;;;;;;;2.34;100.00;100417.97;5070313;28;20028;-68
2022/12/09 05:14:06;;;;;;;55.08;33.72;;;;;;;2.32;100.00;100415.50;5072284;28;20070;-70
2022/12/09 05:16:31;;;;;;;52.67;34.38;;;;;;;2.29;100.00;100415.84;5071112;28;20024;-69
2022/12/09 05:18:58;;;;;;;56.55;35.20;;;;;;;2.28;100.00;100420.38;5070744;28;20056;-69
2022/12/09 05:21:25;;;;;;;57.85;35.08;;;;;;;2.30;100.00;100412.19;5071624;28;20047;-69
2022/12/09 05:23:51;;;;;;;58.47;36.05;;;;;;;2.29;100.00;100421.19;5071913;28;20025;-69
2022/12/09 05:26:19;;;;;;;54.78;33.67;;;;;;;2.29;100.00;100415.84;5071080;28;20414;-69
2022/12/09 05:28:44;;;;;;;56.20;35.50;;;;;;;2.30;100.00;100413.00;5069590;28;20115;-69
2022/12/09 05:31:13;;;;;;;61.90;36.58;;;;;;;2.34;100.00;100416.16;5071348;28;20162;-68
2022/12/09 05:33:40;;;;;;;52.55;35.50;;;;;;;2.34;100.00;100416.16;5070561;28;20024;-69
2022/12/09 05:36:12;;;;;;;57.20;34.45;;;;;;;2.34;100.00;100420.66;5070874;28;20049;-68
2022/12/09 05:38:38;;;;;;;54.15;35.38;;;;;;;2.34;100.00;100412.63;5072094;28;20460;-69
2022/12/09 05:41:04;;;;;;;61.45;35.17;;;;;;;2.33;100.00;100419.81;5070979;28;20447;-69
2022/12/09 05:43:31;;;;;;;54.72;33.50;;;;;;;2.36;100.00;100410.63;5071918;28;20052;-68
2022/12/09 05:45:56;;;;;;;57.65;34.95;;;;;;;2.35;100.00;100416.97;5068150;28;20133;-69
2022/12/09 05:48:22;;;;;;;59.08;34.35;;;;;;;2.33;100.00;100413.66;5070880;28;20071;-69
2022/12/09 05:51:04;;;;;;;54.40;34.35;;;;;;;2.30;100.00;100415.66;5071014;28;20024;-69
2022/12/09 05:53:29;;;;;;;56.75;35.10;;;;;;;2.29;100.00;100416.69;5071792;28;20028;-68
2022/12/09 05:55:55;;;;;;;60.38;34.65;;;;;;;2.32;100.00;100412.81;5069952;28;20160;-69
2022/12/09 05:58:21;;;;;;;55.45;34.80;;;;;;;2.28;100.00;100412.38;5073809;28;20047;-68
2022/12/09 06:00:47;;;;;;;51.20;34.45;;;;;;;2.30;100.00;100415.66;5072294;28;20458;-68
2022/12/09 06:03:12;;;;;;;57.33;36.13;;;;;;;2.29;100.00;100414.03;5074493;28;20025;-70
2022/12/09 06:05:38;;;;;;;65.55;37.60;;;;;;;2.29;100.00;100416.69;5074623;28;20039;-69
2022/12/09 06:08:04;;;;;;;60.08;37.03;;;;;;;2.32;100.00;100407.47;5075726;28;20025;-70
2022/12/09 06:10:30;;;;;;;59.53;36.28;;;;;;;2.33;100.00;100405.66;5074834;28;20035;-69
2022/12/09 06:12:56;;;;;;;64.93;36.38;;;;;;;2.30;100.00;100405.00;5074130;28;20028;-70
2022/12/09 06:15:22;;;;;;;62.25;37.00;;;;;;;2.34;100.00;100408.16;5075508;28;20468;-70
2022/12/09 06:17:48;;;;;;;57.42;34.15;;;;;;;2.33;100.00;100406.47;5073988;28;20495;-69
2022/12/09 06:20:13;;;;;;;59.20;35.40;;;;;;;2.30;100.00;100407.66;5074626;28;20017;-70
2022/12/09 06:22:39;;;;;;;58.08;35.05;;;;;;;2.30;100.00;100401.50;5074602;28;20106;-70
2022/12/09 06:25:04;;;;;;;60.38;35.00;;;;;;;2.29;100.00;100403.34;5075628;28;20025;-69
2022/12/09 06:27:30;;;;;;;57.30;35.33;;;;;;;2.33;100.00;100409.16;5075300;28;20028;-69
2022/12/09 06:29:55;;;;;;;57.35;35.25;;;;;;;2.38;100.00;100403.25;5075085;28;20035;-70
2022/12/09 06:32:20;;;;;;;59.92;34.40;;;;;;;2.37;100.00;100414.94;5067380;28;20100;-68
2022/12/09 06:34:46;;;;;;;53.90;34.63;;;;;;;2.39;100.00;100415.63;5075099;28;20119;-70
2022/12/09 06:37:13;;;;;;;54.13;34.00;;;;;;;2.37;100.00;100409.59;5073998;28;20025;-70
2022/12/09 06:39:38;;;;;;;53.28;33.33;;;;;;;2.38;100.00;100408.59;5073314;28;20060;-69
2022/12/09 06:42:04;;;;;;;53.90;33.63;;;;;;;2.40;100.00;100407.41;5072628;28;20067;-68
2022/12/09 06:44:29;;;;;;;54.95;34.00;;;;;;;2.42;100.00;100404.56;5073768;28;20055;-69
2022/12/09 06:46:55;;;;;;;52.55;33.22;;;;;;;2.39;100.00;100400.41;5073880;28;20055;-70
2022/12/09 06:49:20;;;;;;;48.92;33.08;;;;;;;2.39;100.00;100402.25;5073748;28;20055;-73
2022/12/09 06:51:45;;;;;;;51.67;32.90;;;;;;;2.36;100.00;100411.44;5073883;28;20020;-74
2022/12/09 06:54:11;;;;;;;55.85;33.90;;;;;;;2.33;100.00;100406.47;5073770;28;20024;-72
2022/12/09 06:56:37;;;;;;;53.22;33.28;;;;;;;2.29;100.00;100403.34;5073648;28;20047;-71
2022/12/09 06:59:07;;;;;;;51.13;32.75;;;;;;;2.29;100.00;100405.19;5072162;28;20032;-72
2022/12/09 07:01:33;;;;;;;56.80;32.45;;;;;;;2.30;100.00;100402.31;5036345;28;20041;-72
2022/12/09 07:03:58;;;;;;;52.65;33.72;;;;;;;2.30;100.00;100407.66;5002252;28;20044;-71
2022/12/09 07:06:25;;;;;;;49.88;32.25;;;;;;;2.37;100.00;100410.44;5031968;28;20033;-72
2022/12/09 07:08:51;;;;;;;53.10;33.63;;;;;;;2.38;100.00;100409.41;5014520;28;20036;-72
2022/12/09 07:11:17;;;;;;;50.55;32.53;;;;;;;2.38;100.00;100411.28;5004762;28;20027;-71
2022/12/09 07:13:42;;;;;;;48.38;32.42;;;;;;;2.39;100.00;100411.09;4993429;28;20032;-72
2022/12/09 07:16:07;;;;;;;50.20;31.50;;;;;;;2.41;100.00;100413.56;5008893;28;20023;-71
2022/12/09 07:18:33;;;;;;;50.42;33.17;;;;;;;2.43;100.00;100412.38;4994611;28;20485;-72
2022/12/09 07:21:05;;;;;;;51.95;33.72;;;;;;;2.45;100.00;100420.22;5000170;28;20057;-72
2022/12/09 07:23:30;;;;;;;51.78;32.70;;;;;;;2.47;100.00;100419.00;5014477;28;20041;-71
2022/12/09 07:25:56;;;;;;;50.90;32.10;;;;;;;2.48;100.00;100427.88;5009843;28;20030;-72
2022/12/09 07:28:21;;;;;;;52.58;33.58;;;;;;;2.51;100.00;100427.50;5014298;28;20030;-70
2022/12/09 07:30:46;;;;;;;50.60;34.05;;;;;;;2.52;100.00;100436.34;5012803;28;20057;-71
2022/12/09 07:33:12;;;;;;;55.50;34.95;;;;;;;2.52;100.00;100426.50;5013803;28;20088;-71
2022/12/09 07:35:37;;;;;;;47.92;33.03;;;;;;;2.54;100.00;100431.66;5011864;28;20050;-72
2022/12/09 07:38:02;;;;;;;48.60;33.22;;;;;;;2.52;100.00;100429.16;5013927;28;20466;-71
2022/12/09 07:40:28;;;;;;;48.88;32.78;;;;;;;2.51;100.00;100423.97;5012809;28;20029;-72
2022/12/09 07:42:53;;;;;;;45.35;32.60;;;;;;;2.50;100.00;100433.03;5014119;28;20555;-71
2022/12/09 07:45:18;;;;;;;44.38;31.80;;;;;;;2.50;100.00;100435.69;5012095;28;20065;-71
2022/12/09 07:47:44;;;;;;;48.45;32.58;;;;;;;2.51;100.00;100445.34;5012744;28;20132;-69
2022/12/09 07:50:09;;;;;;;46.83;33.33;;;;;;;2.50;100.00;100444.53;5014206;28;20034;-70
2022/12/09 07:52:34;;;;;;;46.10;32.58;;;;;;;2.49;100.00;100445.53;5013060;28;20116;-70
2022/12/09 07:55:00;;;;;;;51.72;34.53;;;;;;;2.51;100.00;100450.69;5011495;28;20030;-70
2022/12/09 07:57:26;;;;;;;55.40;41.80;;;;;;;2.49;100.00;100442.84;5014128;28;20029;-70
2022/12/09 07:59:52;;;;;;;53.28;39.53;;;;;;;2.48;100.00;100446.56;5012504;28;20424;-73
2022/12/09 08:02:17;;;;;;;51.83;37.05;;;;;;;2.48;100.00;100443.91;4992857;28;20043;-74
2022/12/09 08:04:42;;;;;;;46.25;33.38;;;;;;;2.50;100.00;100449.06;4994533;28;20058;-76
2022/12/09 08:07:08;;;;;;;49.13;32.20;;;;;;;2.51;100.00;100446.19;4992926;28;20497;-78
2022/12/09 08:09:33;;;;;;;48.05;31.65;;;;;;;2.50;100.00;100455.22;4999946;28;20045;-71
2022/12/09 08:11:58;;;;;;;48.17;31.80;;;;;;;2.48;100.00;100457.25;4999590;28;20042;-74
2022/12/09 08:14:24;;;;;;;46.72;31.42;;;;;;;2.48;100.00;100451.91;5000772;28;20068;-73
2022/12/09 08:16:49;;;;;;;44.20;30.75;;;;;;;2.50;100.00;100441.84;5012254;28;20401;-75
2022/12/09 08:19:14;;;;;;;47.10;31.25;;;;;;;2.46;100.00;100446.75;5011327;28;20088;-75
2022/12/09 08:21:40;;;;;;;42.72;31.55;;;;;;;2.52;100.00;100447.00;5012285;28;20038;-76
2022/12/09 08:24:06;;;;;;;46.17;30.83;;;;;;;2.52;100.00;100444.34;5013553;28;20040;-75
2022/12/09 08:26:32;;;;;;;50.45;31.85;;;;;;;2.52;100.00;100447.00;5011178;28;20037;-70
2022/12/09 08:28:58;;;;;;;48.63;31.50;;;;;;;2.52;100.00;100450.53;4995415;28;20042;-73
2022/12/09 08:31:36;;;;;;;46.67;32.63;;;;;;;2.56;100.00;100451.81;5010741;28;20088;-78
2022/12/09 08:34:03;;;;;;;49.47;31.83;;;;;;;2.56;100.00;100449.13;5013352;28;20037;-72
2022/12/09 08:36:29;;;;;;;49.60;31.00;;;;;;;2.57;100.00;100448.13;5011452;28;20116;-73
2022/12/09 08:38:59;;;;;;;47.20;31.30;;;;;;;2.55;100.00;100447.50;5013345;28;20084;-73
2022/12/09 08:41:35;;;;;;;44.03;29.90;;;;;;;2.55;100.00;100442.16;5011943;28;20018;-73
2022/12/09 08:44:05;;;;;;;49.08;31.63;;;;;;;2.56;100.00;100449.13;5033440;28;20448;-71
2022/12/09 08:46:32;;;;;;;48.53;30.92;;;;;;;2.54;100.00;100445.84;5012083;28;20026;-70
2022/12/09 08:49:00;;;;;;;45.33;30.13;;;;;;;2.51;100.00;100440.00;5012869;28;20056;-70
2022/12/09 08:51:25;;;;;;;47.22;29.98;;;;;;;2.51;100.00;100440.00;5008963;28;20083;-68
2022/12/09 08:53:51;;;;;;;44.53;30.13;;;;;;;2.52;100.00;100439.84;5008970;28;20021;-69
2022/12/09 08:56:16;;;;;;;46.63;31.50;;;;;;;2.50;100.00;100444.53;5012842;28;20052;-70
2022/12/09 08:58:42;;;;;;;46.15;30.30;;;;;;;2.48;100.00;100442.03;5012875;28;20219;-72
2022/12/09 09:01:14;;;;;;;48.63;30.92;;;;;;;2.47;100.00;100444.91;5009050;28;20542;-72
2022/12/09 09:03:39;;;;;;;45.97;30.50;;;;;;;2.45;100.00;100442.41;5005856;28;20128;-71
2022/12/09 09:06:06;;;;;;;46.70;30.95;;;;;;;2.46;100.00;100438.72;5013035;28;20444;-70
2022/12/09 09:08:32;;;;;;;49.15;33.80;;;;;;;2.45;100.00;100453.09;5011796;28;20030;-71
2022/12/09 09:10:58;;;;;;;47.15;32.75;;;;;;;2.45;100.00;100452.28;5012734;28;20437;-76
2022/12/09 09:13:23;;;;;;;46.53;32.95;;;;;;;2.45;100.00;100466.44;4998667;28;20058;-73
2022/12/09 09:15:48;;;;;;;50.80;32.97;;;;;;;2.48;100.00;100459.91;4992978;28;20112;-73
2022/12/09 09:18:14;;;;;;;47.05;33.03;;;;;;;2.50;100.00;100465.91;4991699;28;20389;-74
2022/12/09 09:20:46;;;;;;;50.88;32.20;;;;;;;2.54;100.00;100466.38;4991727;28;20029;-74
2022/12/09 09:23:13;;;;;;;49.15;32.55;;;;;;;2.53;100.00;100465.53;5003443;28;20060;-72
2022/12/09 09:26:06;;;;;;;47.45;32.42;;;;;;;2.56;100.00;100477.69;5012542;28;20087;-74
2022/12/09 09:28:32;;;;;;;47.83;32.00;;;;;;;2.59;100.00;100475.50;5013055;28;20034;-73
2022/12/09 09:31:03;;;;;;;50.30;31.23;;;;;;;2.62;100.00;100469.78;5012086;28;20058;-73
2022/12/09 09:33:29;;;;;;;45.95;30.88;;;;;;;2.65;100.00;100460.56;5009526;28;20034;-72
2022/12/09 09:35:59;;;;;;;46.50;31.38;;;;;;;2.69;100.00;100461.88;5011467;28;20451;-71
2022/12/09 09:38:25;;;;;;;47.97;34.08;;;;;;;2.72;100.00;100469.53;5012681;28;20044;-74
2022/12/09 09:40:52;;;;;;;48.35;31.85;;;;;;;2.80;100.00;100465.94;5012366;28;20045;-74
2022/12/09 09:43:21;;;;;;;43.60;31.65;;;;;;;2.83;100.00;100465.56;4997679;28;20041;-76
2022/12/09 09:45:47;;;;;;;47.33;30.30;;;;;;;2.86;100.00;100462.53;5000497;28;20385;-78
2022/12/09 09:48:18;;;;;;;47.03;29.52;;;;;;;2.84;100.00;100467.25;5010678;28;20038;-75
2022/12/09 09:50:58;;;;;;;35.92;24.10;;;;;;;2.86;100.00;100459.84;5011493;28;20041;-77
2022/12/09 09:53:25;;;;;;;40.67;26.45;;;;;;;2.86;100.00;100464.38;5000649;28;20026;-80
2022/12/09 09:56:39;;;;;;;42.40;27.52;;;;;;;2.91;100.00;100467.31;5012571;28;20494;-81
2022/12/09 09:59:23;;;;;;;36.55;25.42;;;;;;;2.92;100.00;100459.13;5010114;28;20034;-76
2022/12/09 10:01:59;;;;;;;38.83;25.10;;;;;;;2.94;100.00;100458.94;4998757;28;20034;-75
2022/12/09 10:04:33;;;;;;;31.75;21.02;;;;;;;2.93;100.00;100449.25;4992685;28;20039;-77
2022/12/09 10:07:28;;;;;;;29.65;20.15;;;;;;;2.93;100.00;100459.94;5003913;28;20030;-73
2022/12/09 10:10:05;;;;;;;30.85;19.98;;;;;;;2.97;100.00;100462.06;5011457;28;20124;-79
2022/12/09 10:12:56;;;;;;;30.83;20.95;;;;;;;2.99;100.00;100457.38;5010598;28;20109;-75
2022/12/09 10:15:28;;;;;;;29.55;20.30;;;;;;;3.02;100.00;100464.19;5001972;28;20416;-78
2022/12/09 10:54:49;;;;;;;29.92;19.63;;;;;;;3.61;100.00;100447.22;5221542;22;20547;-76
2022/12/09 10:58:11;;;;;;;;;;;;;;;;;;;;;
2022/12/09 11:00:37;;;;;;;25.70;16.02;;;;;;;3.41;100.00;100448.84;5051445;28;20033;-77
2022/12/09 11:03:36;;;;;;;29.25;17.23;;;;;;;3.36;100.00;100444.06;5035765;28;20040;-76
2022/12/09 11:06:32;;;;;;;26.63;16.92;;;;;;;3.24;100.00;100442.88;5035099;28;20366;-76
2022/12/09 11:09:06;;;;;;;29.15;18.38;;;;;;;3.13;100.00;100442.34;5035381;28;20369;-76
2022/12/09 11:11:53;;;;;;;27.80;17.38;;;;;;;3.10;100.00;100447.22;5053945;28;20091;-79
2022/12/09 11:14:48;;;;;;;27.65;17.88;;;;;;;3.11;100.00;100448.88;5054441;28;20419;-77
2022/12/09 11:17:42;;;;;;;29.98;18.48;;;;;;;3.13;100.00;100449.53;5033972;28;20032;-75
2022/12/09 11:20:54;;;;;;;29.10;18.85;;;;;;;3.15;100.00;100442.16;5047113;28;20170;-78
2022/12/09 11:23:20;;;;;;;30.13;19.00;;;;;;;3.19;100.00;100438.91;4989090;28;20037;-76
2022/12/09 11:26:27;;;;;;;31.88;20.60;;;;;;;3.26;100.00;100446.19;5050576;28;20048;-77
2022/12/09 11:29:34;;;;;;;28.67;18.08;;;;;;;3.28;100.00;100446.84;5034368;28;20029;-78
2022/12/09 11:32:02;;;;;;;31.58;17.83;;;;;;;3.19;100.00;100446.94;5034384;28;20063;-74
2022/12/09 11:34:27;;;;;;;28.48;17.77;;;;;;;3.15;100.00;100448.31;5034732;28;20059;-74
2022/12/09 11:36:56;;;;;;;30.67;18.38;;;;;;;3.11;100.00;100446.19;5033911;28;20032;-77
2022/12/09 11:39:36;;;;;;;30.98;19.45;;;;;;;3.09;100.00;100450.91;5035607;28;20086;-80
2022/12/09 11:42:26;;;;;;;31.45;18.92;;;;;;;3.08;100.00;100446.56;5036751;28;20025;-77
2022/12/09 11:45:17;;;;;;;32.60;19.05;;;;;;;3.08;100.00;100443.91;5036280;28;20040;-81
2022/12/09 11:47:46;;;;;;;31.98;17.50;;;;;;;3.10;100.00;100437.34;5035922;28;20092;-79
2022/12/09 11:50:22;;;;;;;33.00;19.23;;;;;;;3.14;100.00;100432.47;5054084;28;20082;-77
2022/12/09 12:04:04;;;;;;;35.78;19.65;;;;;;;3.08;100.00;100435.88;5223758;23;20063;-74
2022/12/09 12:07:17;;;;;;;35.97;20.98;;;;;;;3.13;100.00;100428.97;5051730;28;20036;-80
2022/12/09 12:10:01;;;;;;;33.30;20.77;;;;;;;3.11;100.00;100435.50;5051370;28;20032;-79
2022/12/09 12:12:45;;;;;;;31.85;17.90;;;;;;;3.07;100.00;100445.75;5052933;28;20024;-79